Time;durP1;ratioP1;P1;durP2;ratioP2;P2;SDS_P1;SDS_P2;PMS_P1;PMS_P2;Temp;Humidity;BMP_temperature;BMP_pressure;BME280_temperature;BME280_humidity;BME280_pressure;Samples;Min_cycle;Max_cycle;Signal;HPM_P1;HPM_P2
2023/05/11 00:02:58;;;;;;;7.23;4.50;;;10.00;99.90;;;;;;8374522;28;20198;-67
2023/05/11 00:06:59;;;;;;;7.93;5.40;;;10.00;99.90;;;;;;8370821;28;20200;-66
2023/05/11 00:11:00;;;;;;;6.83;5.30;;;10.10;99.90;;;;;;8374470;28;20195;-67
2023/05/11 00:15:01;;;;;;;7.47;4.67;;;10.20;99.90;;;;;;8376433;28;20213;-67
2023/05/11 00:19:02;;;;;;;7.23;5.50;;;10.30;99.90;;;;;;8374141;28;20213;-65
2023/05/11 00:23:03;;;;;;;8.20;5.47;;;10.40;99.90;;;;;;8372682;28;20185;-66
2023/05/11 00:27:04;;;;;;;7.10;5.67;;;10.50;99.90;;;;;;8370494;28;20220;-67
2023/05/11 00:31:08;;;;;;;7.80;5.70;;;10.60;99.90;;;;;;8372730;28;20183;-67
2023/05/11 00:35:10;;;;;;;6.50;5.07;;;10.70;99.90;;;;;;8371528;28;20190;-66
2023/05/11 00:39:12;;;;;;;7.60;5.30;;;10.90;20.90;;;;;;8374535;28;20206;-66
2023/05/11 00:43:13;;;;;;;7.03;4.67;;;11.00;1.00;;;;;;8379420;28;20276;-65
2023/05/11 00:47:14;;;;;;;5.43;4.43;;;11.10;1.00;;;;;;8375165;28;20190;-65
2023/05/11 00:51:16;;;;;;;7.20;4.17;;;11.20;1.00;;;;;;8380204;28;20195;-66
2023/05/11 00:55:20;;;;;;;5.43;4.07;;;11.20;1.00;;;;;;8379040;28;20199;-65
2023/05/11 00:59:24;;;;;;;5.23;4.17;;;11.30;1.00;;;;;;8379626;28;20187;-66
2023/05/11 01:03:25;;;;;;;7.77;4.43;;;11.30;1.00;;;;;;8395339;22;20225;-66
2023/05/11 01:07:52;;;;;;;5.97;4.80;;;11.30;1.00;;;;;;8391996;28;20192;-66
2023/05/11 01:11:59;;;;;;;7.97;5.13;;;11.30;1.00;;;;;;8372819;28;20189;-66
2023/05/11 01:16:07;;;;;;;6.63;4.30;;;11.30;1.00;;;;;;8393423;28;20223;-67
2023/05/11 01:20:16;;;;;;;6.20;4.87;;;11.40;1.00;;;;;;8403602;28;20187;-67
2023/05/11 01:24:35;;;;;;;5.07;4.20;;;11.40;1.00;;;;;;8403473;28;20190;-67
2023/05/11 01:28:38;;;;;;;5.97;4.70;;;11.40;99.90;;;;;;8388593;28;20189;-66
2023/05/11 01:32:40;;;;;;;7.03;4.83;;;11.30;1.00;;;;;;8402572;28;20211;-67
2023/05/11 01:36:53;;;;;;;7.20;4.37;;;11.30;99.90;;;;;;8400248;28;20207;-68
2023/05/11 01:41:02;;;;;;;8.77;5.30;;;11.20;1.00;;;;;;8391783;28;20186;-65
2023/05/11 01:45:06;;;;;;;8.27;4.90;;;11.20;1.00;;;;;;8400867;28;20185;-68
2023/05/11 01:49:13;;;;;;;6.97;5.30;;;11.20;99.90;;;;;;8393405;28;20264;-66
2023/05/11 01:53:18;;;;;;;7.13;6.10;;;11.20;99.90;;;;;;8381478;28;20194;-67
2023/05/11 01:57:20;;;;;;;7.27;4.80;;;11.10;1.00;;;;;;8394510;28;20208;-67
2023/05/11 02:01:23;;;;;;;6.57;5.37;;;11.00;1.00;;;;;;8398124;28;20185;-67
2023/05/11 02:05:25;;;;;;;6.87;5.83;;;10.90;1.00;;;;;;8381540;28;20298;-68
2023/05/11 02:09:34;;;;;;;7.00;5.90;;;10.80;1.00;;;;;;8381420;28;20185;-66
2023/05/11 02:13:38;;;;;;;7.63;5.17;;;10.60;1.00;;;;;;8397116;28;20193;-67
2023/05/11 02:17:42;;;;;;;7.67;5.30;;;10.40;1.00;;;;;;8401027;28;20246;-66
2023/05/11 02:21:44;;;;;;;6.33;4.80;;;10.30;1.00;;;;;;8384469;28;20231;-68
2023/05/11 02:25:50;;;;;;;7.17;5.67;;;10.10;1.00;;;;;;8388052;28;20275;-67
2023/05/11 02:29:52;;;;;;;5.97;4.97;;;9.90;1.00;;;;;;8402217;28;20200;-66
2023/05/11 02:33:55;;;;;;;5.57;4.97;;;9.70;10.50;;;;;;8382250;28;20235;-67
2023/05/11 02:38:00;;;;;;;5.87;5.27;;;9.50;96.60;;;;;;8386877;28;20211;-67
2023/05/11 02:42:13;;;;;;;6.97;5.33;;;9.40;99.90;;;;;;8397200;28;20193;-67
2023/05/11 02:46:25;;;;;;;6.33;5.00;;;9.20;99.90;;;;;;8379879;28;20201;-67
2023/05/11 02:50:29;;;;;;;7.53;5.43;;;9.00;99.90;;;;;;8401054;28;20200;-67
2023/05/11 02:54:31;;;;;;;6.27;4.93;;;8.80;99.90;;;;;;8383180;28;20192;-68
2023/05/11 02:58:41;;;;;;;7.03;5.13;;;8.60;99.90;;;;;;8387013;28;20244;-67
2023/05/11 03:02:42;;;;;;;8.13;5.60;;;8.50;1.00;;;;;;8386052;28;20220;-68
2023/05/11 03:06:43;;;;;;;8.73;7.17;;;8.40;1.00;;;;;;8397580;28;20220;-67
2023/05/11 03:10:56;;;;;;;8.60;7.03;;;8.30;1.00;;;;;;8387593;28;20184;-71
2023/05/11 03:14:59;;;;;;;8.20;5.90;;;8.30;99.90;;;;;;8381573;28;20199;-68
2023/05/11 03:19:01;;;;;;;7.60;6.27;;;8.10;99.90;;;;;;8383550;28;20224;-67
2023/05/11 03:23:06;;;;;;;7.30;6.10;;;8.10;99.90;;;;;;8384145;28;20195;-68
2023/05/11 03:27:08;;;;;;;8.27;6.17;;;8.00;99.90;;;;;;8379449;28;20283;-70
2023/05/11 03:31:09;;;;;;;7.53;6.40;;;7.90;99.90;;;;;;8378057;28;20195;-70
2023/05/11 03:35:10;;;;;;;6.17;5.57;;;7.90;99.90;;;;;;8383419;28;20223;-70
2023/05/11 03:39:13;;;;;;;7.90;6.17;;;8.00;99.90;;;;;;8385388;28;20219;-69
2023/05/11 03:43:17;;;;;;;7.57;5.90;;;7.90;99.90;;;;;;8375237;28;20185;-69
2023/05/11 03:47:19;;;;;;;8.40;6.60;;;7.90;99.90;;;;;;8396264;28;20192;-70
2023/05/11 03:51:20;;;;;;;6.67;5.53;;;7.90;1.00;;;;;;8379175;28;20193;-69
2023/05/11 03:55:21;;;;;;;8.47;6.50;;;8.00;1.00;;;;;;8390635;28;20185;-69
2023/05/11 03:59:25;;;;;;;9.87;7.37;;;8.70;1.00;;;;;;8392757;28;20212;-70
2023/05/11 04:03:26;;;;;;;8.93;6.77;;;9.40;99.90;;;;;;8399321;28;20244;-69
2023/05/11 04:07:31;;;;;;;6.73;5.60;;;10.10;1.00;;;;;;8377834;28;20188;-69
2023/05/11 04:11:36;;;;;;;9.00;6.40;;;11.20;99.90;;;;;;8376814;28;20200;-69
2023/05/11 04:15:48;;;;;;;7.77;5.83;;;12.30;1.00;;;;;;8381343;28;20197;-70
2023/05/11 04:19:50;;;;;;;7.30;5.40;;;13.20;99.90;;;;;;8378906;28;20233;-67
2023/05/11 04:23:51;;;;;;;8.17;5.50;;;14.10;99.90;;;;;;8379887;28;20192;-68
2023/05/11 04:27:52;;;;;;;7.73;6.07;;;14.70;99.90;;;;;;8375827;28;20189;-68
2023/05/11 04:31:53;;;;;;;8.10;5.80;;;15.30;99.90;;;;;;8396554;28;20189;-67
2023/05/11 04:35:54;;;;;;;7.37;5.37;;;15.90;76.70;;;;;;8382717;28;20299;-68
2023/05/11 04:39:59;;;;;;;9.20;5.67;;;16.20;25.10;;;;;;8380913;28;20276;-67
2023/05/11 04:44:00;;;;;;;7.37;5.30;;;16.40;1.30;;;;;;8375442;28;20189;-67
2023/05/11 04:48:01;;;;;;;8.33;5.10;;;16.30;1.00;;;;;;8395772;28;20199;-67
2023/05/11 04:52:02;;;;;;;6.03;4.87;;;16.40;1.00;;;;;;8380967;28;20231;-69
2023/05/11 04:56:03;;;;;;;8.83;4.97;;;16.50;1.00;;;;;;8376980;28;20323;-67
2023/05/11 05:00:09;;;;;;;5.30;4.53;;;16.60;1.00;;;;;;8395860;28;20189;-69
2023/05/11 05:04:13;;;;;;;6.87;4.87;;;16.20;1.00;;;;;;8384100;28;20221;-67
2023/05/11 05:08:14;;;;;;;7.07;4.77;;;15.60;8.20;;;;;;8396662;28;20228;-68
2023/05/11 05:12:15;;;;;;;5.37;3.93;;;15.50;15.10;;;;;;8393928;28;20197;-67
2023/05/11 05:16:16;;;;;;;5.20;4.10;;;15.40;23.00;;;;;;8396090;28;20297;-66
2023/05/11 05:20:17;;;;;;;5.17;4.43;;;15.40;18.30;;;;;;8394569;28;20243;-68
2023/05/11 05:24:18;;;;;;;4.93;4.13;;;15.40;20.50;;;;;;8396311;28;20189;-68
2023/05/11 05:28:19;;;;;;;6.53;5.30;;;15.40;15.90;;;;;;8400646;28;20189;-68
2023/05/11 05:32:19;;;;;;;24.57;11.67;;;15.40;4.60;;;;;;8400976;28;20199;-69
2023/05/11 05:36:20;;;;;;;16.63;9.00;;;15.30;15.10;;;;;;8391008;28;20231;-68
2023/05/11 05:40:21;;;;;;;9.03;4.93;;;15.30;5.10;;;;;;8399079;28;20195;-70
2023/05/11 05:44:22;;;;;;;17.93;8.63;;;15.30;5.00;;;;;;8389506;28;20187;-68
2023/05/11 05:48:23;;;;;;;11.30;5.43;;;15.40;3.60;;;;;;8389630;28;20185;-68
2023/05/11 05:52:25;;;;;;;10.57;5.30;;;15.70;1.00;;;;;;8380442;28;20184;-68
2023/05/11 05:56:28;;;;;;;8.20;5.40;;;16.00;6.10;;;;;;8380169;28;20312;-70
2023/05/11 06:00:30;;;;;;;5.80;4.30;;;16.30;1.00;;;;;;8379951;28;20189;-66
2023/05/11 06:04:31;;;;;;;5.67;3.80;;;16.50;1.00;;;;;;8384267;28;20274;-67
2023/05/11 06:08:32;;;;;;;11.20;5.40;;;16.70;1.00;;;;;;8389069;28;20245;-69
2023/05/11 06:12:33;;;;;;;8.60;4.30;;;17.00;1.00;;;;;;8382286;28;20202;-71
2023/05/11 06:16:34;;;;;;;6.53;4.03;;;17.30;1.00;;;;;;8387579;28;20213;-74
2023/05/11 06:20:35;;;;;;;8.67;4.73;;;17.70;1.00;;;;;;8397506;28;20280;-71
2023/05/11 06:24:39;;;;;;;18.90;4.57;;;18.00;1.00;;;;;;8383902;28;20181;-66
2023/05/11 06:28:40;;;;;;;6.80;3.80;;;18.30;1.00;;;;;;8385185;28;20326;-70
2023/05/11 06:32:42;;;;;;;6.90;4.83;;;18.40;1.00;;;;;;8401561;28;20197;-68
2023/05/11 06:36:43;;;;;;;4.30;3.40;;;18.60;1.00;;;;;;8382433;28;20295;-68
2023/05/11 06:40:44;;;;;;;7.73;5.47;;;18.70;1.00;;;;;;8381535;28;20181;-70
2023/05/11 06:44:45;;;;;;;8.23;4.60;;;18.60;1.00;;;;;;8396569;28;20201;-68
2023/05/11 06:48:49;;;;;;;5.30;3.67;;;18.30;1.00;;;;;;8380789;28;20208;-71
2023/05/11 06:52:50;;;;;;;6.67;4.20;;;18.00;1.00;;;;;;8400702;28;20195;-69
2023/05/11 06:56:54;;;;;;;5.07;3.50;;;17.80;1.00;;;;;;8379299;28;20299;-70
2023/05/11 07:00:58;;;;;;;4.87;3.10;;;17.70;1.00;;;;;;8387166;28;20241;-67
2023/05/11 07:04:59;;;;;;;4.10;2.83;;;17.30;1.00;;;;;;8378700;28;20208;-67
2023/05/11 07:09:05;;;;;;;5.13;3.30;;;17.10;1.00;;;;;;8385550;28;20207;-69
2023/05/11 07:13:06;;;;;;;3.73;2.90;;;17.10;1.00;;;;;;8377442;28;20189;-68
2023/05/11 07:17:08;;;;;;;4.23;3.70;;;17.00;1.00;;;;;;8399388;28;20315;-66
2023/05/11 07:21:12;;;;;;;5.20;3.70;;;17.20;1.00;;;;;;8387765;28;20201;-67
2023/05/11 07:25:16;;;;;;;5.37;3.20;;;17.60;1.00;;;;;;8376886;28;20184;-66
2023/05/11 07:29:17;;;;;;;6.77;2.73;;;17.90;1.00;;;;;;8396635;28;20271;-66
2023/05/11 07:33:18;;;;;;;7.10;2.93;;;18.30;1.00;;;;;;8381273;28;20286;-66
2023/05/11 07:37:19;;;;;;;5.80;2.83;;;18.70;1.00;;;;;;8378091;28;20208;-66
2023/05/11 07:41:24;;;;;;;3.53;2.40;;;18.90;1.00;;;;;;8395224;28;20185;-66
2023/05/11 07:45:25;;;;;;;2.73;1.97;;;19.10;1.00;;;;;;8379519;28;20193;-66
2023/05/11 07:49:26;;;;;;;2.70;2.17;;;19.10;1.00;;;;;;8394827;28;20219;-68
2023/05/11 07:53:27;;;;;;;3.87;1.90;;;19.10;1.00;;;;;;8395833;28;20192;-66
2023/05/11 07:57:28;;;;;;;5.10;2.00;;;19.00;1.00;;;;;;8379075;28;20204;-66
2023/05/11 08:01:30;;;;;;;4.63;2.10;;;19.00;1.00;;;;;;8383869;28;20215;-67
2023/05/11 08:05:36;;;;;;;2.37;2.10;;;18.90;1.00;;;;;;8384412;28;20225;-66
2023/05/11 08:09:40;;;;;;;4.57;2.27;;;18.80;1.00;;;;;;8383710;28;20181;-67
2023/05/11 08:13:41;;;;;;;5.87;2.40;;;18.90;1.00;;;;;;8375766;28;20192;-66
2023/05/11 08:17:42;;;;;;;3.77;2.20;;;19.00;1.00;;;;;;8377013;28;20218;-67
2023/05/11 08:21:46;;;;;;;3.03;2.00;;;19.20;1.00;;;;;;8377685;28;20180;-66
2023/05/11 08:25:51;;;;;;;4.83;1.97;;;19.30;1.00;;;;;;8395041;28;20188;-65
2023/05/11 08:29:54;;;;;;;2.23;1.77;;;19.60;1.00;;;;;;8384730;28;20191;-67
2023/05/11 08:33:55;;;;;;;3.70;2.27;;;19.70;1.00;;;;;;8380786;28;20176;-66
2023/05/11 08:37:55;;;;;;;5.53;1.67;;;19.80;1.00;;;;;;8379031;28;20213;-66
2023/05/11 08:41:58;;;;;;;4.17;1.70;;;19.90;1.00;;;;;;8376668;28;20233;-66
2023/05/11 08:46:02;;;;;;;2.40;1.67;;;20.00;1.00;;;;;;8393262;28;20258;-66
2023/05/11 08:50:13;;;;;;;4.23;1.60;;;20.00;1.00;;;;;;8377204;28;20191;-66
2023/05/11 08:54:14;;;;;;;4.27;1.70;;;20.10;1.00;;;;;;8380377;28;20184;-66
2023/05/11 08:58:19;;;;;;;5.00;1.63;;;20.20;1.00;;;;;;8375682;28;20217;-66
2023/05/11 09:02:25;;;;;;;1.93;1.60;;;20.20;1.00;;;;;;8388283;28;20228;-66
2023/05/11 09:06:27;;;;;;;3.00;1.60;;;20.50;1.00;;;;;;8382746;28;20238;-65
2023/05/11 09:10:31;;;;;;;4.87;1.80;;;20.50;1.00;;;;;;8382073;28;20181;-67
2023/05/11 09:14:35;;;;;;;1.50;1.37;;;20.70;1.00;;;;;;8382910;28;20189;-67
2023/05/11 09:18:47;;;;;;;2.33;1.50;;;21.00;1.00;;;;;;8384069;28;20220;-65
2023/05/11 09:22:50;;;;;;;1.53;1.30;;;21.10;1.00;;;;;;8385034;28;20188;-66
2023/05/11 09:27:09;;;;;;;5.03;1.50;;;21.30;1.00;;;;;;8401895;28;20226;-65
2023/05/11 09:31:11;;;;;;;3.10;1.30;;;21.40;1.00;;;;;;8382837;28;20182;-67
2023/05/11 09:35:32;;;;;;;2.87;1.30;;;21.50;1.00;;;;;;8387859;28;20275;-67
2023/05/11 09:39:35;;;;;;;3.00;1.30;;;21.30;1.00;;;;;;8383951;28;20219;-69
2023/05/11 09:43:36;;;;;;;1.57;0.87;;;21.10;1.00;;;;;;8400699;28;20181;-66
2023/05/11 09:47:41;;;;;;;1.80;1.30;;;21.20;1.00;;;;;;8386173;28;20191;-66
2023/05/11 09:51:42;;;;;;;1.60;1.20;;;21.20;1.00;;;;;;8388333;28;20241;-66
2023/05/11 09:55:54;;;;;;;2.87;1.50;;;21.10;1.00;;;;;;8388683;28;20192;-69
2023/05/11 09:59:58;;;;;;;1.77;1.43;;;21.40;1.00;;;;;;8385058;28;20192;-69
2023/05/11 10:04:01;;;;;;;6.80;1.77;;;21.40;1.00;;;;;;8381742;28;20222;-66
2023/05/11 10:08:04;;;;;;;4.17;1.40;;;21.40;1.00;;;;;;8398243;28;20189;-66
2023/05/11 10:12:05;;;;;;;1.77;1.30;;;21.30;1.00;;;;;;8398780;28;20186;-67
2023/05/11 10:16:08;;;;;;;2.17;1.37;;;21.40;1.00;;;;;;8399990;28;20204;-67
2023/05/11 10:20:10;;;;;;;3.13;1.70;;;21.50;1.00;;;;;;8381679;28;20184;-67
2023/05/11 10:24:12;;;;;;;2.00;1.37;;;21.30;1.00;;;;;;8386235;28;20184;-68
2023/05/11 10:28:14;;;;;;;3.40;1.70;;;21.10;1.00;;;;;;8388140;28;20184;-68
2023/05/11 10:32:17;;;;;;;7.60;2.13;;;21.00;1.00;;;;;;8378532;28;20201;-67
2023/05/11 10:36:18;;;;;;;4.20;1.97;;;21.10;1.00;;;;;;8379653;28;20265;-70
2023/05/11 10:40:19;;;;;;;2.83;1.90;;;21.60;1.00;;;;;;8380524;28;20192;-70
2023/05/11 10:45:06;;;;;;;4.40;2.40;;;21.90;1.00;;;;;;8381757;28;20247;-68
2023/05/11 10:49:38;;;;;;;4.40;1.97;;;22.20;1.00;;;;;;8401295;28;20185;-67
2023/05/11 10:54:11;;;;;;;7.90;3.10;;;22.10;1.00;;;;;;8381837;28;20342;-68
2023/05/11 10:58:40;;;;;;;6.80;2.50;;;21.90;1.00;;;;;;8398927;28;20209;-67
2023/05/11 11:02:43;;;;;;;3.93;2.10;;;21.90;1.00;;;;;;8376695;28;20229;-67
2023/05/11 11:06:44;;;;;;;3.47;1.80;;;22.00;1.00;;;;;;8376032;28;20185;-66
2023/05/11 11:10:45;;;;;;;2.17;1.80;;;22.10;1.00;;;;;;8400065;28;20188;-67
2023/05/11 11:15:05;;;;;;;9.33;2.00;;;22.60;1.00;;;;;;8394616;28;20195;-67
2023/05/11 11:19:27;;;;;;;3.43;1.60;;;22.90;1.00;;;;;;8380322;28;20235;-66
2023/05/11 11:23:50;;;;;;;3.60;1.73;;;23.30;1.00;;;;;;8376924;28;20196;-67
2023/05/11 11:27:51;;;;;;;4.80;1.70;;;23.70;1.00;;;;;;8387887;28;20320;-66
2023/05/11 11:31:52;;;;;;;2.20;1.70;;;23.90;1.00;;;;;;8383000;28;20192;-67
2023/05/11 11:35:54;;;;;;;1.83;1.23;;;23.70;1.00;;;;;;8383116;28;20228;-66
2023/05/11 11:40:00;;;;;;;8.33;1.70;;;23.20;1.00;;;;;;8391739;28;20192;-69
2023/05/11 11:44:03;;;;;;;1.97;1.20;;;23.10;1.00;;;;;;8379156;28;20276;-69
2023/05/11 11:48:13;;;;;;;2.17;1.00;;;23.20;1.00;;;;;;8393168;28;20200;-67
2023/05/11 11:52:34;;;;;;;2.83;1.40;;;23.20;1.00;;;;;;8381066;28;20185;-68
2023/05/11 11:56:37;;;;;;;3.10;1.20;;;23.20;1.00;;;;;;8394946;28;20266;-65
2023/05/11 12:00:39;;;;;;;1.83;1.00;;;23.20;1.00;;;;;;8397163;28;20301;-67
2023/05/11 12:05:04;;;;;;;2.00;1.10;;;23.10;1.00;;;;;;8377870;28;20223;-67
2023/05/11 12:09:06;;;;;;;1.33;0.90;;;23.20;1.00;;;;;;8378564;28;20188;-69
2023/05/11 12:13:09;;;;;;;3.27;1.00;;;23.20;1.00;;;;;;8383238;28;20200;-66
2023/05/11 12:17:15;;;;;;;2.80;1.30;;;23.60;1.00;;;;;;8395160;28;20270;-66
2023/05/11 12:21:24;;;;;;;5.73;1.40;;;23.80;1.00;;;;;;8378842;28;20211;-68
2023/05/11 12:25:25;;;;;;;3.77;1.17;;;23.90;1.00;;;;;;8384919;28;20216;-66
2023/05/11 12:29:26;;;;;;;1.10;0.90;;;23.70;1.00;;;;;;8383429;28;20215;-66
2023/05/11 12:33:27;;;;;;;1.67;1.00;;;23.40;1.00;;;;;;8385061;28;20200;-64
2023/05/11 12:37:30;;;;;;;2.60;1.07;;;23.40;1.00;;;;;;8386300;28;20274;-66
2023/05/11 12:41:31;;;;;;;4.00;1.10;;;23.60;1.00;;;;;;8402263;28;20216;-66
2023/05/11 12:45:32;;;;;;;3.00;1.30;;;23.90;1.00;;;;;;8404769;28;20184;-65
2023/05/11 12:49:34;;;;;;;2.57;1.43;;;24.00;1.00;;;;;;8391147;28;20203;-67
2023/05/11 12:53:35;;;;;;;3.00;1.40;;;23.60;1.00;;;;;;8387898;28;20196;-67
2023/05/11 12:57:40;;;;;;;1.60;1.40;;;23.10;1.00;;;;;;8399868;28;20205;-67
2023/05/11 13:01:41;;;;;;;3.80;1.13;;;22.70;1.00;;;;;;8384082;28;20192;-67
2023/05/11 13:05:42;;;;;;;2.20;1.30;;;22.80;1.00;;;;;;8379123;28;20224;-67
2023/05/11 13:09:58;;;;;;;1.63;1.33;;;23.10;1.00;;;;;;8383893;28;20196;-67
2023/05/11 13:14:13;;;;;;;5.57;1.80;;;23.10;1.00;;;;;;8382519;28;20195;-66
2023/05/11 13:18:16;;;;;;;2.50;1.57;;;23.10;1.00;;;;;;8391230;28;20216;-66
2023/05/11 13:22:20;;;;;;;2.00;1.50;;;22.80;1.00;;;;;;8404021;28;20284;-67
2023/05/11 13:26:23;;;;;;;3.17;1.47;;;22.60;1.00;;;;;;8383009;28;20231;-68
2023/05/11 13:30:24;;;;;;;4.57;1.50;;;22.60;1.00;;;;;;8395910;28;20266;-66
2023/05/11 13:34:27;;;;;;;3.93;1.40;;;22.50;1.00;;;;;;8388716;28;20189;-68
2023/05/11 13:38:28;;;;;;;4.80;1.70;;;22.40;1.00;;;;;;8383198;28;20303;-68
2023/05/11 13:42:31;;;;;;;2.13;1.93;;;22.60;1.00;;;;;;8381710;28;20200;-67
2023/05/11 13:46:34;;;;;;;4.23;1.60;;;22.90;1.00;;;;;;8401777;28;20188;-67
2023/05/11 13:50:36;;;;;;;2.43;1.97;;;23.10;1.00;;;;;;8381564;28;20192;-66
2023/05/11 13:54:36;;;;;;;3.20;1.53;;;23.20;1.00;;;;;;8381918;28;20193;-67
2023/05/11 13:58:37;;;;;;;2.73;1.70;;;22.90;1.00;;;;;;8401435;28;20216;-68
2023/05/11 14:02:38;;;;;;;2.90;1.50;;;22.70;1.00;;;;;;8400370;28;20223;-68
2023/05/11 14:06:47;;;;;;;2.27;1.77;;;22.70;1.00;;;;;;8378193;28;20181;-67
2023/05/11 14:10:48;;;;;;;5.47;1.90;;;23.00;1.00;;;;;;8395321;28;20268;-69
2023/05/11 14:14:49;;;;;;;4.57;1.50;;;23.40;1.00;;;;;;8399229;28;20192;-67
2023/05/11 14:18:50;;;;;;;3.57;1.80;;;23.70;1.00;;;;;;8396072;28;20201;-65
2023/05/11 14:22:51;;;;;;;2.47;1.40;;;23.70;1.00;;;;;;8387380;28;20185;-66
2023/05/11 14:26:52;;;;;;;3.80;1.70;;;23.40;1.00;;;;;;8378931;28;20185;-66
2023/05/11 14:30:54;;;;;;;4.27;2.00;;;23.40;1.00;;;;;;8389247;28;20253;-67
2023/05/11 14:34:55;;;;;;;4.93;1.77;;;23.40;1.00;;;;;;8397476;28;20308;-69
2023/05/11 14:38:56;;;;;;;2.37;1.83;;;23.40;1.00;;;;;;8387492;28;20227;-67
2023/05/11 14:42:57;;;;;;;14.00;2.97;;;23.20;1.00;;;;;;8382178;28;20181;-68
2023/05/11 14:47:07;;;;;;;2.07;1.47;;;23.20;1.00;;;;;;8378309;28;20253;-67
2023/05/11 14:51:12;;;;;;;2.63;1.53;;;23.20;1.00;;;;;;8380118;28;20185;-68
2023/05/11 14:55:13;;;;;;;2.83;1.70;;;23.00;1.00;;;;;;8386460;28;20196;-67
2023/05/11 14:59:14;;;;;;;2.50;2.10;;;22.90;1.00;;;;;;8378734;28;20295;-68
2023/05/11 15:03:15;;;;;;;7.17;2.20;;;22.60;1.00;;;;;;8398681;28;20262;-67
2023/05/11 15:07:16;;;;;;;4.97;1.80;;;22.30;1.00;;;;;;8382841;28;20193;-65
2023/05/11 15:11:17;;;;;;;1.87;1.50;;;22.20;1.00;;;;;;8398148;28;20195;-65
2023/05/11 15:15:19;;;;;;;5.37;1.73;;;22.30;1.00;;;;;;8398637;28;20209;-67
2023/05/11 15:19:19;;;;;;;2.63;1.63;;;22.50;1.00;;;;;;8394242;28;20277;-67
2023/05/11 15:23:20;;;;;;;6.60;1.80;;;22.40;1.00;;;;;;8398973;28;20181;-66
2023/05/11 15:27:26;;;;;;;1.87;1.70;;;22.10;1.00;;;;;;8398849;28;20195;-67
2023/05/11 15:31:27;;;;;;;4.30;1.97;;;21.80;1.00;;;;;;8379522;28;20325;-65
2023/05/11 15:35:28;;;;;;;3.80;1.80;;;21.70;1.00;;;;;;8380592;28;20185;-68
2023/05/11 15:39:30;;;;;;;5.03;1.90;;;21.60;1.00;;;;;;8385827;28;20265;-64
2023/05/11 15:43:31;;;;;;;3.70;1.60;;;21.50;1.00;;;;;;8393353;28;20189;-67
2023/05/11 15:47:32;;;;;;;1.50;1.40;;;21.60;1.00;;;;;;8395944;28;20227;-67
2023/05/11 15:51:36;;;;;;;2.93;1.60;;;21.60;1.00;;;;;;8375780;28;20207;-67
2023/05/11 15:55:39;;;;;;;3.47;1.57;;;21.60;1.00;;;;;;8381571;28;20204;-67
2023/05/11 15:59:40;;;;;;;2.60;1.73;;;21.60;1.00;;;;;;8395566;28;20216;-66
2023/05/11 16:03:41;;;;;;;3.20;1.60;;;21.70;1.00;;;;;;8377463;28;20208;-67
2023/05/11 16:07:45;;;;;;;2.07;1.70;;;21.70;1.00;;;;;;8394547;28;20185;-66
2023/05/11 16:11:46;;;;;;;2.10;1.30;;;21.70;1.00;;;;;;8397516;28;20189;-66
2023/05/11 16:15:47;;;;;;;3.27;1.70;;;21.80;1.00;;;;;;8382982;28;20184;-67
2023/05/11 16:19:50;;;;;;;6.33;2.20;;;21.90;1.00;;;;;;8385913;28;20233;-63
2023/05/11 16:23:51;;;;;;;5.73;2.10;;;22.00;1.00;;;;;;8397694;28;20196;-66
2023/05/11 16:27:52;;;;;;;2.80;1.70;;;22.00;1.00;;;;;;8377461;28;20221;-67
2023/05/11 16:31:53;;;;;;;5.00;1.77;;;21.80;1.00;;;;;;8397728;28;20268;-66
2023/05/11 16:35:54;;;;;;;1.83;1.53;;;21.60;1.00;;;;;;8385455;28;20211;-68
2023/05/11 16:39:55;;;;;;;3.30;1.50;;;21.50;1.00;;;;;;8382304;28;20213;-66
2023/05/11 16:44:05;;;;;;;2.73;1.80;;;21.40;1.00;;;;;;8382397;28;20184;-67
2023/05/11 16:48:06;;;;;;;3.43;2.00;;;21.20;1.00;;;;;;8397952;28;20193;-66
2023/05/11 16:52:07;;;;;;;3.57;1.70;;;21.10;1.00;;;;;;8375384;28;20189;-68
2023/05/11 16:56:12;;;;;;;6.57;2.00;;;21.00;1.00;;;;;;8381010;28;20196;-68
2023/05/11 17:00:13;;;;;;;3.60;2.17;;;20.80;1.00;;;;;;8378797;28;20196;-66
2023/05/11 17:04:15;;;;;;;4.67;2.67;;;20.70;1.00;;;;;;8379729;28;20227;-66
2023/05/11 17:08:18;;;;;;;6.07;2.60;;;20.70;1.00;;;;;;8374479;28;20200;-67
2023/05/11 17:12:20;;;;;;;3.77;2.03;;;20.80;1.00;;;;;;8381940;28;20192;-66
2023/05/11 17:16:22;;;;;;;2.70;2.00;;;20.90;1.00;;;;;;8378941;28;20350;-66
2023/05/11 17:20:23;;;;;;;2.10;1.87;;;20.90;1.00;;;;;;8398873;28;20205;-67
2023/05/11 17:24:24;;;;;;;2.20;2.00;;;21.00;1.00;;;;;;8385153;28;20189;-69
2023/05/11 17:28:26;;;;;;;2.97;2.00;;;21.40;1.00;;;;;;8390430;28;20198;-69
2023/05/11 17:32:27;;;;;;;2.60;2.23;;;21.90;1.00;;;;;;8386538;28;20245;-68
2023/05/11 17:36:28;;;;;;;3.30;2.00;;;22.10;1.00;;;;;;8399062;28;20208;-71
2023/05/11 17:40:29;;;;;;;3.87;2.23;;;22.10;1.00;;;;;;8388801;28;20196;-70
2023/05/11 17:44:30;;;;;;;4.80;2.10;;;22.10;1.00;;;;;;8402745;28;20184;-69
2023/05/11 17:48:32;;;;;;;5.60;2.43;;;21.90;1.00;;;;;;8387126;28;20195;-67
2023/05/11 17:52:33;;;;;;;2.93;1.93;;;21.90;1.00;;;;;;8389433;28;20185;-68
2023/05/11 17:56:33;;;;;;;5.60;3.17;;;22.10;1.00;;;;;;8403681;28;20235;-69
2023/05/11 18:00:37;;;;;;;8.73;4.00;;;22.10;1.00;;;;;;8385470;28;20223;-69
2023/05/11 18:04:40;;;;;;;7.87;3.83;;;21.80;1.00;;;;;;8385381;28;20213;-68
2023/05/11 18:08:41;;;;;;;7.57;4.03;;;21.40;1.00;;;;;;8382984;28;20195;-68
2023/05/11 18:12:42;;;;;;;6.20;3.20;;;21.20;1.00;;;;;;8388377;28;20189;-68
2023/05/11 18:16:43;;;;;;;6.03;3.33;;;21.00;1.00;;;;;;8384278;28;20215;-69
2023/05/11 18:20:45;;;;;;;6.30;3.77;;;20.60;1.00;;;;;;8403026;28;20192;-68
2023/05/11 18:24:46;;;;;;;5.47;3.57;;;19.90;1.00;;;;;;8399467;28;20181;-68
2023/05/11 18:28:47;;;;;;;7.30;4.40;;;19.20;1.00;;;;;;8393195;28;20204;-67
2023/05/11 18:32:48;;;;;;;9.53;5.47;;;18.60;1.00;;;;;;8396699;28;20180;-68
2023/05/11 18:36:49;;;;;;;15.67;6.80;;;18.10;1.00;;;;;;8385556;28;20253;-68
2023/05/11 18:40:51;;;;;;;17.40;5.33;;;17.70;1.00;;;;;;8404702;28;20185;-68
2023/05/11 18:44:53;;;;;;;6.60;3.80;;;17.20;1.00;;;;;;8382403;28;20271;-68
2023/05/11 18:48:55;;;;;;;5.23;3.20;;;16.90;1.00;;;;;;8401464;28;20192;-68
2023/05/11 18:52:56;;;;;;;3.13;2.60;;;16.60;1.00;;;;;;8377320;28;20196;-68
2023/05/11 18:56:57;;;;;;;3.20;2.67;;;16.30;1.00;;;;;;8401800;28;20228;-69
2023/05/11 19:00:59;;;;;;;2.87;2.30;;;16.00;1.00;;;;;;8385488;28;20185;-69
2023/05/11 19:05:00;;;;;;;2.77;2.37;;;15.80;1.00;;;;;;8380556;28;20216;-68
2023/05/11 19:09:01;;;;;;;2.53;2.07;;;15.70;1.00;;;;;;8381757;28;20189;-68
2023/05/11 19:13:03;;;;;;;2.40;2.20;;;15.60;1.00;;;;;;8385123;28;20192;-67
2023/05/11 19:17:04;;;;;;;4.27;2.40;;;15.40;10.50;;;;;;8388220;28;20293;-66
2023/05/11 19:21:08;;;;;;;2.90;2.60;;;15.20;32.30;;;;;;8398744;28;20185;-68
2023/05/11 19:25:12;;;;;;;2.33;2.13;;;15.10;54.30;;;;;;8380506;28;20190;-68
2023/05/11 19:29:16;;;;;;;3.30;2.60;;;14.90;67.40;;;;;;8386530;28;20192;-67
2023/05/11 19:33:17;;;;;;;3.07;2.53;;;14.80;96.10;;;;;;8383553;28;20279;-68
2023/05/11 19:37:18;;;;;;;4.40;2.90;;;14.60;92.60;;;;;;8399758;28;20208;-67
2023/05/11 19:41:20;;;;;;;77.70;27.97;;;14.60;98.00;;;;;;8384067;28;20199;-69
2023/05/11 19:45:21;;;;;;;75.27;27.53;;;14.40;99.10;;;;;;8378621;28;20197;-68
2023/05/11 19:49:22;;;;;;;34.07;12.50;;;14.40;99.90;;;;;;8384346;28;20244;-70
2023/05/11 19:53:24;;;;;;;13.80;6.60;;;14.30;99.90;;;;;;8382155;28;20223;-67
2023/05/11 19:57:29;;;;;;;7.07;4.03;;;14.20;99.90;;;;;;8399310;28;20232;-67
2023/05/11 20:01:30;;;;;;;3.80;3.00;;;14.10;99.90;;;;;;8382061;28;20193;-67
2023/05/11 20:05:34;;;;;;;4.70;2.83;;;14.00;99.90;;;;;;8395971;28;20266;-69
2023/05/11 20:09:35;;;;;;;3.83;2.83;;;13.90;99.90;;;;;;8384515;28;20201;-68
2023/05/11 20:13:36;;;;;;;3.37;2.93;;;13.80;99.90;;;;;;8376690;28;20188;-68
2023/05/11 20:17:38;;;;;;;4.83;3.40;;;13.80;99.90;;;;;;8375201;28;20216;-68
2023/05/11 20:21:39;;;;;;;4.20;3.13;;;13.60;99.90;;;;;;8378937;28;20201;-68
2023/05/11 20:25:42;;;;;;;4.67;3.23;;;13.50;99.90;;;;;;8380418;28;20184;-68
2023/05/11 20:29:43;;;;;;;5.33;3.67;;;13.40;99.90;;;;;;8378594;28;20190;-68
2023/05/11 20:33:47;;;;;;;5.13;3.50;;;13.30;99.90;;;;;;8376443;28;20187;-66
2023/05/11 20:37:48;;;;;;;8.77;3.67;;;13.10;99.90;;;;;;8376670;28;20216;-68
2023/05/11 20:41:49;;;;;;;3.40;2.93;;;13.00;99.90;;;;;;8395899;28;20180;-67
2023/05/11 20:45:50;;;;;;;3.43;3.03;;;12.80;99.90;;;;;;8387343;28;20229;-68
2023/05/11 20:49:51;;;;;;;3.07;2.80;;;12.60;99.90;;;;;;8378703;28;20196;-68
2023/05/11 20:53:52;;;;;;;3.37;3.07;;;12.50;99.90;;;;;;8385675;28;20189;-68
2023/05/11 20:57:53;;;;;;;3.40;3.10;;;12.30;99.90;;;;;;8391776;28;20207;-69
2023/05/11 21:01:58;;;;;;;3.53;3.23;;;12.20;99.90;;;;;;8384811;28;20275;-67
2023/05/11 21:05:59;;;;;;;3.80;3.40;;;12.10;99.90;;;;;;8381973;28;20202;-68
2023/05/11 21:10:00;;;;;;;3.87;3.37;;;12.00;99.90;;;;;;8390016;28;20182;-68
2023/05/11 21:14:01;;;;;;;4.10;3.10;;;11.90;99.90;;;;;;8397504;28;20186;-69
2023/05/11 21:18:03;;;;;;;3.90;3.50;;;11.80;99.90;;;;;;8388644;28;20217;-69
2023/05/11 21:22:04;;;;;;;4.97;3.60;;;11.80;99.90;;;;;;8387111;28;20216;-68